Time;durP1;ratioP1;P1;durP2;ratioP2;P2;SDS_P1;SDS_P2;PMS_P1;PMS_P2;Temp;Humidity;BMP_temperature;BMP_pressure;BME280_temperature;BME280_humidity;BME280_pressure;Samples;Min_cycle;Max_cycle;Signal;HPM_P1;HPM_P2
2022/07/06 00:01:24;;;;;;;5.63;3.30;;;21.30;58.00;;;;;;5043220;28;20489;-70
2022/07/06 00:03:52;;;;;;;5.87;3.20;;;21.20;58.00;;;;;;5042561;28;20489;-71
2022/07/06 00:06:23;;;;;;;5.77;2.80;;;21.20;58.10;;;;;;5037552;28;20529;-70
2022/07/06 00:08:51;;;;;;;6.13;3.10;;;21.20;58.20;;;;;;5050725;28;20882;-70
2022/07/06 00:11:19;;;;;;;4.47;2.40;;;21.20;58.20;;;;;;5049339;28;20548;-70
2022/07/06 00:13:49;;;;;;;6.07;3.07;;;21.20;58.20;;;;;;5032900;28;20470;-71
2022/07/06 00:16:17;;;;;;;6.10;4.23;;;21.10;58.20;;;;;;5049359;28;20474;-70
2022/07/06 00:18:46;;;;;;;7.20;3.80;;;21.10;58.20;;;;;;5044770;28;20470;-70
2022/07/06 00:21:14;;;;;;;6.60;3.23;;;21.00;58.20;;;;;;5044847;28;20471;-73
2022/07/06 00:23:42;;;;;;;5.33;3.30;;;20.90;58.20;;;;;;5044365;28;20478;-74
2022/07/06 00:26:10;;;;;;;6.93;3.00;;;20.90;58.40;;;;;;5052077;28;20490;-70
2022/07/06 00:28:38;;;;;;;6.10;2.80;;;20.80;58.50;;;;;;5045674;28;20478;-72
2022/07/06 00:31:07;;;;;;;4.57;2.67;;;20.80;58.60;;;;;;5046138;28;20871;-72
2022/07/06 00:33:35;;;;;;;5.17;2.93;;;20.80;58.70;;;;;;5036891;28;20463;-70
2022/07/06 00:36:04;;;;;;;5.87;3.20;;;20.80;58.80;;;;;;5045087;28;20501;-70
2022/07/06 00:38:32;;;;;;;8.87;3.40;;;20.80;58.90;;;;;;5041709;28;20504;-71
2022/07/06 00:41:00;;;;;;;5.20;3.07;;;20.80;59.00;;;;;;5017782;28;20857;-71
2022/07/06 00:43:28;;;;;;;4.80;3.40;;;20.80;59.10;;;;;;5042542;28;20478;-70
2022/07/06 00:45:56;;;;;;;5.50;3.47;;;20.80;59.20;;;;;;5050509;28;20483;-70
2022/07/06 00:48:25;;;;;;;6.57;4.30;;;20.80;59.30;;;;;;5020964;28;20825;-70
2022/07/06 00:50:54;;;;;;;7.47;4.20;;;20.70;59.40;;;;;;5044239;28;20900;-71
2022/07/06 00:53:22;;;;;;;5.80;3.40;;;20.60;59.50;;;;;;5043050;28;20454;-71
2022/07/06 00:55:50;;;;;;;5.80;3.03;;;20.60;59.50;;;;;;5047508;28;20502;-70
2022/07/06 00:58:18;;;;;;;6.60;3.40;;;20.60;59.60;;;;;;5031690;28;20552;-71
2022/07/06 01:00:47;;;;;;;5.70;3.27;;;20.60;59.70;;;;;;5051395;28;21113;-70
2022/07/06 01:03:15;;;;;;;6.97;3.90;;;20.60;59.80;;;;;;5046695;28;20460;-70
2022/07/06 01:05:45;;;;;;;7.17;3.73;;;20.60;59.80;;;;;;5057204;28;20477;-70
2022/07/06 01:08:13;;;;;;;5.07;3.13;;;20.50;59.90;;;;;;5045065;28;20469;-70
2022/07/06 01:10:41;;;;;;;6.50;4.23;;;20.50;59.90;;;;;;5022792;28;20457;-70
2022/07/06 01:13:10;;;;;;;4.87;3.30;;;20.50;59.90;;;;;;5036204;28;20458;-70
2022/07/06 01:15:38;;;;;;;6.23;3.93;;;20.40;60.00;;;;;;5035767;28;20475;-70
2022/07/06 01:18:06;;;;;;;5.80;3.50;;;20.40;60.10;;;;;;5031246;28;20473;-70
2022/07/06 01:20:35;;;;;;;6.07;3.60;;;20.30;60.20;;;;;;5015273;28;20461;-73
2022/07/06 01:27:10;;;;;;;6.90;3.80;;;20.30;60.30;;;;;;5046060;28;20559;-74
2022/07/06 01:29:38;;;;;;;8.23;4.47;;;20.20;60.30;;;;;;5045215;28;21428;-71
2022/07/06 01:32:07;;;;;;;6.50;3.20;;;20.20;60.40;;;;;;5044157;28;20486;-70
2022/07/06 01:34:35;;;;;;;5.70;3.50;;;20.20;60.40;;;;;;5034656;28;20465;-71
2022/07/06 01:37:05;;;;;;;5.67;3.53;;;20.20;60.50;;;;;;5045372;28;20489;-71
2022/07/06 01:39:34;;;;;;;5.97;4.00;;;20.20;60.60;;;;;;5021303;28;20457;-70
2022/07/06 01:42:06;;;;;;;6.60;3.70;;;20.20;60.50;;;;;;5048755;28;20461;-71
2022/07/06 01:44:34;;;;;;;5.10;3.60;;;20.10;60.60;;;;;;5047988;28;20485;-70
2022/07/06 01:47:03;;;;;;;9.57;4.07;;;20.10;60.60;;;;;;5029714;28;20476;-71
2022/07/06 01:49:31;;;;;;;6.20;3.83;;;20.10;60.80;;;;;;5020024;28;20582;-70
2022/07/06 01:51:59;;;;;;;5.73;3.70;;;20.00;60.80;;;;;;5045785;28;20482;-72
2022/07/06 01:54:28;;;;;;;5.87;4.10;;;20.00;60.80;;;;;;5041522;28;20538;-70
2022/07/06 01:56:56;;;;;;;6.73;3.40;;;20.00;60.90;;;;;;5045559;28;20561;-71
2022/07/06 01:59:26;;;;;;;5.77;3.87;;;19.90;61.00;;;;;;5033698;28;20465;-72
2022/07/06 02:01:54;;;;;;;7.37;4.50;;;19.90;61.10;;;;;;5044797;23;20504;-70
2022/07/06 02:04:23;;;;;;;5.87;3.93;;;19.90;61.10;;;;;;5037561;28;20508;-71
2022/07/06 02:06:51;;;;;;;6.90;3.93;;;19.80;61.20;;;;;;5047387;28;20501;-69
2022/07/06 02:09:20;;;;;;;7.57;4.40;;;19.80;61.20;;;;;;5023484;28;20469;-72
2022/07/06 02:11:50;;;;;;;6.60;4.70;;;19.70;61.30;;;;;;5025471;28;20552;-72
2022/07/06 02:14:18;;;;;;;7.40;3.73;;;19.70;61.40;;;;;;5023718;28;20538;-70
2022/07/06 02:16:45;;;;;;;6.20;4.43;;;19.70;61.40;;;;;;5024431;28;20480;-70
2022/07/06 02:19:17;;;;;;;5.30;3.73;;;19.60;61.50;;;;;;5026664;28;21210;-69
2022/07/06 02:21:46;;;;;;;5.80;4.13;;;19.60;61.50;;;;;;5027292;28;20456;-71
2022/07/06 02:24:14;;;;;;;7.80;4.70;;;19.60;61.60;;;;;;5041989;28;20570;-71
2022/07/06 02:26:43;;;;;;;6.10;3.87;;;19.50;61.70;;;;;;5023692;28;20491;-73
2022/07/06 02:29:12;;;;;;;6.57;4.37;;;19.50;61.70;;;;;;5026403;28;20476;-75
2022/07/06 02:31:40;;;;;;;6.40;4.73;;;19.50;61.80;;;;;;5020411;28;20477;-71
2022/07/06 02:34:10;;;;;;;7.40;4.03;;;19.50;61.80;;;;;;5022309;28;20469;-69
2022/07/06 02:36:38;;;;;;;5.90;4.00;;;19.40;61.80;;;;;;5040248;28;20572;-70
2022/07/06 02:39:06;;;;;;;5.57;4.07;;;19.40;61.90;;;;;;5018590;28;20463;-71
2022/07/06 02:41:34;;;;;;;6.10;3.90;;;19.30;62.00;;;;;;5025757;28;20488;-72
2022/07/06 02:44:02;;;;;;;6.23;4.00;;;19.30;62.10;;;;;;5025479;28;21006;-69
2022/07/06 02:46:32;;;;;;;7.90;4.60;;;19.30;62.10;;;;;;5043570;28;20474;-70
2022/07/06 02:49:00;;;;;;;5.33;3.70;;;19.30;62.10;;;;;;5030604;28;20493;-71
2022/07/06 02:51:28;;;;;;;7.57;5.07;;;19.20;62.30;;;;;;5030202;28;20457;-72
2022/07/06 02:53:56;;;;;;;7.27;4.73;;;19.20;62.30;;;;;;5030647;28;20487;-71
2022/07/06 02:56:24;;;;;;;6.83;4.70;;;19.20;62.30;;;;;;5034580;28;21005;-70
2022/07/06 02:58:52;;;;;;;6.87;4.43;;;19.10;62.30;;;;;;5031120;28;20989;-70
2022/07/06 03:01:20;;;;;;;6.30;4.27;;;19.10;62.40;;;;;;5041418;28;20570;-71
2022/07/06 03:03:50;;;;;;;5.63;4.00;;;19.10;62.50;;;;;;5025283;28;20502;-71
2022/07/06 03:06:18;;;;;;;6.70;4.33;;;19.00;62.60;;;;;;5030507;28;20503;-73
2022/07/06 03:08:46;;;;;;;6.70;4.43;;;19.00;62.60;;;;;;5046283;28;20555;-71
2022/07/06 03:11:14;;;;;;;7.00;4.23;;;19.00;62.60;;;;;;5045958;28;20460;-72
2022/07/06 03:13:43;;;;;;;5.87;4.27;;;18.90;62.70;;;;;;5044409;28;20471;-71
2022/07/06 03:16:11;;;;;;;8.73;5.00;;;18.90;62.80;;;;;;5046551;28;20472;-71
2022/07/06 03:18:39;;;;;;;6.67;4.60;;;18.80;62.90;;;;;;5026837;28;21210;-69
2022/07/06 03:21:09;;;;;;;5.43;3.77;;;18.80;63.00;;;;;;5034704;28;20459;-70
2022/07/06 03:23:37;;;;;;;6.50;4.10;;;18.80;63.10;;;;;;5020683;28;20534;-70
2022/07/06 03:26:06;;;;;;;7.30;4.60;;;18.80;63.20;;;;;;5036145;28;20906;-71
2022/07/06 03:28:34;;;;;;;7.80;5.03;;;18.80;63.30;;;;;;5029185;28;20496;-70
2022/07/06 03:31:02;;;;;;;6.30;4.50;;;18.90;63.30;;;;;;5024947;28;20477;-71
2022/07/06 03:33:31;;;;;;;6.77;3.90;;;18.90;63.40;;;;;;5030383;28;21739;-70
2022/07/06 03:35:59;;;;;;;7.43;4.77;;;18.90;63.40;;;;;;5044881;28;20646;-72
2022/07/06 03:38:29;;;;;;;6.80;4.33;;;18.90;63.50;;;;;;5033033;28;20460;-70
2022/07/06 03:40:57;;;;;;;7.00;4.73;;;18.90;63.40;;;;;;5045621;28;20466;-70
2022/07/06 03:43:26;;;;;;;6.10;4.47;;;18.90;63.40;;;;;;5042197;28;20908;-72
2022/07/06 03:45:54;;;;;;;7.03;4.50;;;18.90;63.50;;;;;;5023175;28;20551;-69
2022/07/06 03:48:23;;;;;;;5.30;3.57;;;18.90;63.60;;;;;;5034206;28;20511;-69
2022/07/06 03:50:52;;;;;;;6.70;4.10;;;18.90;63.70;;;;;;5027424;28;20454;-70
2022/07/06 03:53:20;;;;;;;7.37;3.67;;;18.90;63.80;;;;;;5042969;28;20543;-71
2022/07/06 03:58:32;;;;;;;7.60;4.10;;;19.00;63.90;;;;;;5022397;28;20522;-72
2022/07/06 04:01:01;;;;;;;6.40;4.10;;;19.00;63.90;;;;;;5044571;28;20489;-70
2022/07/06 04:03:29;;;;;;;5.40;3.90;;;19.00;64.00;;;;;;5022734;28;20467;-70
2022/07/06 04:06:01;;;;;;;7.17;4.33;;;19.00;64.10;;;;;;5045212;28;20913;-70
2022/07/06 04:08:30;;;;;;;6.23;4.30;;;19.10;64.10;;;;;;5025645;28;21048;-71
2022/07/06 04:11:01;;;;;;;6.00;4.20;;;19.10;64.10;;;;;;5029853;28;20886;-69
2022/07/06 04:13:29;;;;;;;6.77;4.33;;;19.20;64.10;;;;;;5023883;28;20548;-69
2022/07/06 04:15:58;;;;;;;5.33;3.90;;;19.20;64.20;;;;;;5019576;28;20472;-69
2022/07/06 04:18:27;;;;;;;6.60;3.93;;;19.30;64.20;;;;;;5046076;28;20467;-73
2022/07/06 04:20:57;;;;;;;4.90;3.70;;;19.30;64.30;;;;;;5025561;28;20465;-69
2022/07/06 04:23:26;;;;;;;7.13;3.90;;;19.40;64.30;;;;;;5028393;28;20516;-70
2022/07/06 04:25:56;;;;;;;8.70;4.00;;;19.50;64.40;;;;;;5043564;28;20483;-69
2022/07/06 04:28:27;;;;;;;6.30;4.50;;;19.50;64.30;;;;;;5030983;28;20519;-72
2022/07/06 04:30:55;;;;;;;7.03;4.20;;;19.60;64.30;;;;;;5040369;28;20490;-70
2022/07/06 04:33:24;;;;;;;5.90;4.03;;;19.60;64.30;;;;;;5035630;28;20834;-70
2022/07/06 04:35:52;;;;;;;6.93;4.67;;;19.70;64.30;;;;;;5026331;28;20890;-69
2022/07/06 04:38:24;;;;;;;6.90;4.10;;;19.80;64.30;;;;;;5035702;28;20553;-70
2022/07/06 04:40:55;;;;;;;6.13;4.20;;;19.90;64.30;;;;;;5024301;28;20837;-72
2022/07/06 04:43:23;;;;;;;8.10;4.60;;;20.00;64.30;;;;;;5037363;28;20470;-68
2022/07/06 04:45:52;;;;;;;6.20;4.70;;;20.10;64.30;;;;;;5022799;28;20495;-72
2022/07/06 04:48:20;;;;;;;6.93;4.23;;;20.20;64.20;;;;;;5037989;28;20451;-70
2022/07/06 04:50:49;;;;;;;6.63;4.20;;;20.20;64.00;;;;;;5041288;28;20450;-69
2022/07/06 04:53:24;;;;;;;5.50;3.80;;;20.40;64.00;;;;;;5031792;28;20492;-71
2022/07/06 04:55:52;;;;;;;7.73;4.07;;;20.50;64.00;;;;;;5030653;28;20506;-70
2022/07/06 04:58:21;;;;;;;7.67;4.20;;;20.60;64.00;;;;;;5015119;28;20454;-69
2022/07/06 05:00:52;;;;;;;7.80;3.90;;;20.70;64.00;;;;;;5044030;28;20475;-70
2022/07/06 05:03:21;;;;;;;6.00;3.80;;;20.80;63.90;;;;;;5044254;28;20459;-71
2022/07/06 05:05:49;;;;;;;6.73;4.13;;;20.90;63.70;;;;;;5028425;28;20481;-71
2022/07/06 05:08:21;;;;;;;5.20;3.80;;;21.00;63.70;;;;;;5033960;28;20871;-71
2022/07/06 05:10:51;;;;;;;7.73;3.87;;;21.10;63.60;;;;;;5020304;28;20552;-70
2022/07/06 05:13:20;;;;;;;6.10;3.60;;;21.20;63.50;;;;;;5040106;28;20524;-71
2022/07/06 05:15:49;;;;;;;5.97;3.73;;;21.30;63.30;;;;;;5031734;28;20905;-69
2022/07/06 05:18:18;;;;;;;8.97;3.93;;;21.40;63.00;;;;;;5038808;28;20454;-68
2022/07/06 05:20:47;;;;;;;8.37;3.50;;;21.50;62.80;;;;;;5042240;28;21099;-68
2022/07/06 05:23:15;;;;;;;6.47;4.13;;;21.60;62.60;;;;;;5027990;28;20462;-71
2022/07/06 05:25:43;;;;;;;7.67;3.60;;;21.50;62.30;;;;;;5026805;28;20615;-71
2022/07/06 05:28:12;;;;;;;7.27;3.17;;;21.50;62.00;;;;;;5046873;28;21024;-70
2022/07/06 05:30:40;;;;;;;7.67;3.50;;;21.40;61.80;;;;;;5035586;28;20533;-69
2022/07/06 05:33:09;;;;;;;5.20;3.20;;;21.20;61.70;;;;;;5027521;28;20466;-71
2022/07/06 05:35:39;;;;;;;12.73;3.90;;;21.10;61.80;;;;;;5012163;28;20575;-69
2022/07/06 05:38:21;;;;;;;7.67;3.77;;;21.00;61.90;;;;;;5031239;28;20489;-71
2022/07/06 05:40:50;;;;;;;6.00;3.93;;;20.90;62.00;;;;;;5026728;28;20454;-71
2022/07/06 05:43:18;;;;;;;6.80;3.57;;;20.80;62.00;;;;;;5024051;28;20951;-68
2022/07/06 05:45:47;;;;;;;5.53;3.20;;;20.80;62.10;;;;;;5028237;28;20494;-69
2022/07/06 05:51:05;;;;;;;6.50;3.70;;;21.40;62.90;;;;;;5038925;28;20513;-73
2022/07/06 05:53:33;;;;;;;5.57;3.47;;;22.30;62.40;;;;;;5043318;28;20464;-68
2022/07/06 05:56:01;;;;;;;6.40;3.83;;;23.20;61.30;;;;;;5021808;28;20568;-68
2022/07/06 05:58:31;;;;;;;7.40;4.00;;;23.60;59.40;;;;;;5026812;28;20552;-70
2022/07/06 06:01:00;;;;;;;6.07;3.70;;;24.00;60.00;;;;;;5027639;28;20912;-74
2022/07/06 06:03:28;;;;;;;6.33;3.10;;;24.50;59.00;;;;;;5044949;28;20488;-73
2022/07/06 06:05:56;;;;;;;6.93;3.53;;;25.20;58.20;;;;;;5028946;28;20476;-72
2022/07/06 06:08:27;;;;;;;5.30;2.90;;;25.30;57.60;;;;;;5038337;28;20461;-69
2022/07/06 06:10:55;;;;;;;8.17;3.33;;;25.20;56.60;;;;;;5025205;28;20549;-69
2022/07/06 06:13:26;;;;;;;6.40;3.33;;;24.90;56.30;;;;;;5024774;28;20463;-70
2022/07/06 06:15:54;;;;;;;6.80;3.00;;;24.70;56.50;;;;;;5042328;28;20533;-69
2022/07/06 06:18:22;;;;;;;5.63;2.97;;;24.40;56.80;;;;;;5043470;28;20455;-70
2022/07/06 06:20:50;;;;;;;5.37;3.20;;;24.30;57.30;;;;;;5049402;28;20463;-69
2022/07/06 06:23:18;;;;;;;5.93;3.30;;;24.40;57.80;;;;;;5043818;28;20445;-68
2022/07/06 06:25:48;;;;;;;13.13;2.80;;;24.50;57.90;;;;;;5047921;28;20982;-68
2022/07/06 06:28:15;;;;;;;14.77;3.57;;;24.50;57.10;;;;;;5052907;28;20471;-70
2022/07/06 06:30:44;;;;;;;9.60;2.90;;;24.40;56.80;;;;;;5029591;28;21314;-70
2022/07/06 06:33:13;;;;;;;9.57;3.30;;;24.30;56.80;;;;;;5050369;28;20473;-72
2022/07/06 06:35:44;;;;;;;5.23;2.63;;;24.10;57.00;;;;;;5054341;28;21221;-68
2022/07/06 06:38:13;;;;;;;5.33;2.20;;;23.90;56.70;;;;;;5049713;28;20453;-72
2022/07/06 06:40:41;;;;;;;6.50;3.00;;;23.60;56.70;;;;;;5052319;28;20885;-69
2022/07/06 06:43:10;;;;;;;7.10;2.40;;;23.40;56.90;;;;;;5054636;28;20457;-69
2022/07/06 06:45:54;;;;;;;9.70;2.43;;;23.10;57.30;;;;;;5030489;28;20468;-70
2022/07/06 06:48:22;;;;;;;7.23;2.60;;;22.80;57.40;;;;;;5053052;28;21059;-72
2022/07/06 06:50:50;;;;;;;4.87;2.33;;;22.60;57.70;;;;;;5052423;28;20978;-70
2022/07/06 06:53:18;;;;;;;5.33;2.63;;;22.40;58.10;;;;;;5051604;28;20457;-72
2022/07/06 06:55:46;;;;;;;8.60;2.87;;;22.30;58.10;;;;;;5053418;28;20482;-72
2022/07/06 06:58:15;;;;;;;6.90;2.60;;;22.10;58.30;;;;;;5032016;28;20456;-70
2022/07/06 07:00:43;;;;;;;8.73;2.30;;;21.90;58.60;;;;;;5048397;28;20478;-69
2022/07/06 07:03:11;;;;;;;6.07;2.17;;;21.90;58.80;;;;;;5049739;28;20822;-71
2022/07/06 07:05:39;;;;;;;4.80;2.50;;;21.90;59.10;;;;;;5045201;28;20485;-69
2022/07/06 07:08:07;;;;;;;4.93;2.40;;;21.90;59.10;;;;;;5045134;28;20508;-69
2022/07/06 07:10:35;;;;;;;5.90;2.53;;;21.80;59.10;;;;;;5048306;28;20466;-71
2022/07/06 07:13:03;;;;;;;8.77;2.50;;;21.80;59.30;;;;;;5053125;28;20446;-70
2022/07/06 07:15:32;;;;;;;5.80;2.60;;;21.70;59.30;;;;;;5024146;28;20467;-70
2022/07/06 07:18:00;;;;;;;7.70;3.10;;;21.60;59.40;;;;;;5053762;28;20461;-69
2022/07/06 07:20:29;;;;;;;5.27;3.03;;;21.60;59.40;;;;;;5034209;28;20456;-71
2022/07/06 07:22:57;;;;;;;5.20;2.43;;;21.60;59.60;;;;;;5050307;28;20923;-69
2022/07/06 07:25:26;;;;;;;9.10;2.70;;;21.60;59.70;;;;;;5050805;28;20467;-71
2022/07/06 07:27:54;;;;;;;6.30;2.30;;;21.60;59.80;;;;;;5051005;28;20836;-70
2022/07/06 07:30:22;;;;;;;5.00;2.00;;;21.60;59.90;;;;;;5048920;28;20451;-70
2022/07/06 07:32:52;;;;;;;5.60;2.57;;;21.70;59.90;;;;;;5031915;28;20464;-68
2022/07/06 07:35:20;;;;;;;9.10;2.83;;;21.70;59.90;;;;;;5034042;28;20468;-71
2022/07/06 07:37:48;;;;;;;5.67;2.33;;;21.60;60.00;;;;;;5048448;28;21183;-76
2022/07/06 07:40:16;;;;;;;7.30;2.50;;;21.50;60.00;;;;;;5045145;28;20456;-72
2022/07/06 07:42:45;;;;;;;7.60;3.03;;;21.60;60.10;;;;;;5026496;28;20472;-71
2022/07/06 07:45:13;;;;;;;7.47;2.77;;;21.60;60.20;;;;;;5044057;28;20475;-70
2022/07/06 07:47:41;;;;;;;9.00;2.67;;;21.60;60.10;;;;;;5045566;28;20479;-69
2022/07/06 07:50:12;;;;;;;6.93;2.30;;;21.60;60.20;;;;;;5035514;28;21006;-70
2022/07/06 07:52:40;;;;;;;5.50;3.20;;;21.60;60.10;;;;;;5043305;28;21292;-72
2022/07/06 07:55:09;;;;;;;6.03;2.63;;;21.70;60.00;;;;;;5045547;28;20463;-72
2022/07/06 07:57:57;;;;;;;6.33;3.70;;;21.70;60.00;;;;;;5042267;28;20472;-69
2022/07/06 08:00:25;;;;;;;7.60;3.73;;;21.70;60.00;;;;;;5044210;28;20461;-72
2022/07/06 08:02:55;;;;;;;8.30;3.50;;;21.80;59.90;;;;;;5049467;28;20586;-71
2022/07/06 08:05:24;;;;;;;5.90;3.33;;;21.90;59.80;;;;;;5046522;28;20469;-71
2022/07/06 08:07:52;;;;;;;6.33;3.30;;;21.90;59.70;;;;;;5044307;28;20564;-71
2022/07/06 08:10:20;;;;;;;9.10;4.40;;;22.00;59.60;;;;;;5047572;28;20486;-72
2022/07/06 08:12:49;;;;;;;7.77;3.30;;;22.00;59.50;;;;;;5048348;28;20462;-72
2022/07/06 08:15:17;;;;;;;8.40;4.87;;;22.00;59.40;;;;;;5050093;28;21062;-70
2022/07/06 08:17:45;;;;;;;6.47;3.47;;;22.00;59.40;;;;;;5045964;28;20439;-71
2022/07/06 08:20:14;;;;;;;6.30;3.37;;;22.10;59.40;;;;;;5048473;28;20454;-73
2022/07/06 08:22:44;;;;;;;10.03;4.50;;;22.10;59.40;;;;;;5030654;28;20449;-69
2022/07/06 08:25:12;;;;;;;5.97;3.23;;;22.20;59.20;;;;;;5051075;28;20456;-71
2022/07/06 08:27:40;;;;;;;6.80;3.20;;;22.30;59.20;;;;;;5035771;28;20529;-71
2022/07/06 08:30:10;;;;;;;7.80;2.77;;;22.30;59.10;;;;;;5043016;28;20459;-70
2022/07/06 08:32:39;;;;;;;5.93;3.33;;;22.30;59.20;;;;;;5026324;28;20463;-70
2022/07/06 08:35:27;;;;;;;5.80;3.10;;;22.20;59.10;;;;;;5044511;28;20518;-69
2022/07/06 08:37:56;;;;;;;5.50;2.80;;;22.20;59.20;;;;;;5043966;28;21045;-71
2022/07/06 08:40:25;;;;;;;5.93;3.20;;;22.30;59.20;;;;;;5046415;28;20462;-70
2022/07/06 08:42:55;;;;;;;6.53;3.10;;;22.30;59.30;;;;;;5032031;28;20464;-71
2022/07/06 08:45:23;;;;;;;4.90;2.30;;;22.40;59.20;;;;;;5039408;28;20467;-69
2022/07/06 08:47:52;;;;;;;5.60;2.53;;;22.40;59.30;;;;;;5046368;28;21250;-69
2022/07/06 08:50:21;;;;;;;7.83;3.63;;;22.50;59.30;;;;;;5047462;28;20445;-71
2022/07/06 08:52:49;;;;;;;7.33;2.93;;;22.50;59.10;;;;;;5045713;28;20474;-69
2022/07/06 08:55:19;;;;;;;5.60;3.07;;;22.60;59.00;;;;;;5025900;28;20451;-69
2022/07/06 08:57:48;;;;;;;7.07;2.90;;;22.70;58.80;;;;;;5046732;28;20465;-69
2022/07/06 09:00:16;;;;;;;6.70;3.00;;;22.70;58.70;;;;;;5042129;28;20463;-70
2022/07/06 09:02:44;;;;;;;7.23;3.30;;;22.60;58.60;;;;;;5042048;28;20957;-72
2022/07/06 09:05:15;;;;;;;7.30;3.60;;;22.60;58.70;;;;;;5042830;28;20450;-72
2022/07/06 09:07:46;;;;;;;6.70;2.73;;;22.60;58.70;;;;;;5044882;28;20457;-71
2022/07/06 09:10:28;;;;;;;8.03;3.27;;;22.60;58.70;;;;;;5042030;28;20489;-74
2022/07/06 09:13:04;;;;;;;6.33;2.30;;;22.60;58.60;;;;;;5044525;28;20466;-70
2022/07/06 09:15:33;;;;;;;5.07;2.43;;;22.60;58.60;;;;;;5047856;28;21014;-69
2022/07/06 09:18:02;;;;;;;8.67;2.70;;;22.60;58.60;;;;;;5043883;28;20454;-70
2022/07/06 09:20:30;;;;;;;7.37;3.10;;;22.60;58.50;;;;;;5037591;28;20462;-71
2022/07/06 09:23:00;;;;;;;5.70;2.93;;;22.60;58.60;;;;;;5045743;28;20461;-72
2022/07/06 09:25:30;;;;;;;6.37;3.47;;;22.60;58.50;;;;;;5041689;28;20454;-72
2022/07/06 09:27:59;;;;;;;5.93;2.87;;;22.60;58.50;;;;;;5029507;28;20466;-69
2022/07/06 09:30:28;;;;;;;5.10;2.70;;;22.50;58.50;;;;;;5043319;28;20467;-71
2022/07/06 09:32:57;;;;;;;5.87;3.10;;;22.50;58.60;;;;;;5026319;28;20458;-71
2022/07/06 09:35:27;;;;;;;8.47;3.00;;;22.50;58.60;;;;;;5043943;28;20477;-73
2022/07/06 09:38:03;;;;;;;5.60;2.60;;;22.60;58.60;;;;;;5018543;28;20822;-72
2022/07/06 09:40:36;;;;;;;4.60;2.43;;;22.70;58.60;;;;;;5043663;28;20451;-69
2022/07/06 09:43:12;;;;;;;7.83;3.30;;;22.70;58.30;;;;;;5027724;28;20462;-68
2022/07/06 09:45:42;;;;;;;10.23;2.90;;;22.60;58.20;;;;;;5044040;28;20478;-69
2022/07/06 09:48:12;;;;;;;9.57;3.20;;;22.50;58.20;;;;;;5038912;28;20489;-73
2022/07/06 09:50:41;;;;;;;6.63;3.17;;;22.60;58.40;;;;;;5045884;28;20454;-73
2022/07/06 09:53:09;;;;;;;6.33;3.43;;;22.60;58.40;;;;;;5045267;28;20457;-68
2022/07/06 09:55:38;;;;;;;9.40;2.97;;;22.70;58.30;;;;;;5023173;28;21482;-71
2022/07/06 09:58:06;;;;;;;5.47;2.20;;;22.80;58.10;;;;;;5044279;28;21293;-70
2022/07/06 10:00:34;;;;;;;7.00;3.20;;;22.90;58.10;;;;;;5046499;28;20473;-72
2022/07/06 10:03:02;;;;;;;6.73;2.77;;;23.00;57.80;;;;;;5043317;28;21011;-72
2022/07/06 10:05:31;;;;;;;5.70;2.87;;;23.00;57.70;;;;;;5046126;28;20457;-69
2022/07/06 10:08:01;;;;;;;7.20;3.00;;;23.00;57.70;;;;;;5045624;28;20475;-70
2022/07/06 10:10:30;;;;;;;7.40;3.20;;;23.00;57.30;;;;;;5042715;28;20873;-70
2022/07/06 10:13:00;;;;;;;6.00;3.13;;;22.90;57.10;;;;;;5041431;28;20477;-70
2022/07/06 10:15:31;;;;;;;6.40;3.37;;;22.90;57.20;;;;;;5044800;28;20537;-73
2022/07/06 10:18:00;;;;;;;6.67;3.07;;;22.80;56.80;;;;;;5029877;28;20837;-70
2022/07/06 10:20:31;;;;;;;6.07;2.80;;;22.80;56.60;;;;;;5041347;28;20488;-69
2022/07/06 10:23:00;;;;;;;6.77;2.60;;;22.70;56.50;;;;;;5040724;28;20451;-71
2022/07/06 10:25:29;;;;;;;7.73;2.77;;;22.70;56.70;;;;;;5040240;28;20459;-70
2022/07/06 10:27:58;;;;;;;5.93;2.80;;;22.70;56.80;;;;;;5041097;28;20458;-73
2022/07/06 10:30:28;;;;;;;7.80;3.17;;;22.80;56.80;;;;;;5014518;28;20469;-71
2022/07/06 10:32:59;;;;;;;4.70;2.57;;;22.80;56.40;;;;;;5041206;28;20458;-71
2022/07/06 10:35:27;;;;;;;9.50;2.87;;;22.90;56.60;;;;;;5032501;28;20454;-71
2022/07/06 10:38:06;;;;;;;5.37;2.30;;;23.00;56.40;;;;;;5023767;28;20458;-74
2022/07/06 10:43:25;;;;;;;6.77;2.47;;;23.10;55.80;;;;;;5040956;28;20460;-73
2022/07/06 10:45:54;;;;;;;4.67;2.50;;;23.10;55.40;;;;;;5043246;28;20481;-72
2022/07/06 10:48:22;;;;;;;5.10;2.53;;;23.10;55.40;;;;;;5044391;28;20845;-72
2022/07/06 10:50:53;;;;;;;7.70;2.63;;;23.10;55.60;;;;;;5046037;28;20451;-70
2022/07/06 10:53:25;;;;;;;5.10;2.70;;;23.20;55.50;;;;;;5044336;28;20453;-69
2022/07/06 10:55:54;;;;;;;6.30;3.07;;;23.20;54.90;;;;;;5032437;28;20475;-69
2022/07/06 10:58:39;;;;;;;6.40;2.90;;;23.10;54.80;;;;;;5043029;28;20490;-70
2022/07/06 11:01:09;;;;;;;4.80;3.00;;;23.00;54.80;;;;;;5041243;28;20488;-69
2022/07/06 11:03:39;;;;;;;5.90;2.60;;;22.90;54.80;;;;;;5043155;28;21304;-70
2022/07/06 11:06:13;;;;;;;6.50;2.37;;;22.80;54.90;;;;;;5041792;28;20479;-72
2022/07/06 11:08:50;;;;;;;4.17;2.20;;;22.80;55.20;;;;;;5022952;28;20882;-70
2022/07/06 11:11:20;;;;;;;7.90;2.70;;;22.80;54.90;;;;;;5052005;28;20470;-68
2022/07/06 11:13:52;;;;;;;6.30;2.60;;;22.80;54.70;;;;;;5040651;28;20458;-70
2022/07/06 11:16:22;;;;;;;4.70;2.40;;;22.80;54.60;;;;;;5040586;28;20570;-69
2022/07/06 11:18:59;;;;;;;6.27;2.90;;;22.70;54.30;;;;;;5046394;28;20515;-68
2022/07/06 11:21:37;;;;;;;5.50;2.87;;;22.70;54.30;;;;;;5028347;28;20557;-69
2022/07/06 11:24:07;;;;;;;4.80;2.63;;;22.60;54.40;;;;;;5045558;28;20473;-69
2022/07/06 11:26:36;;;;;;;7.90;2.67;;;22.60;54.40;;;;;;5045852;28;20819;-69
2022/07/06 11:29:10;;;;;;;5.40;2.13;;;22.60;54.50;;;;;;5042863;28;20474;-69
2022/07/06 11:31:39;;;;;;;8.43;2.53;;;22.70;54.50;;;;;;5044941;28;21028;-68
2022/07/06 11:34:09;;;;;;;4.20;2.33;;;22.70;54.50;;;;;;5049331;28;20495;-70
2022/07/06 11:36:38;;;;;;;5.20;2.90;;;22.70;54.20;;;;;;5046012;28;21032;-69
2022/07/06 11:39:13;;;;;;;4.57;2.53;;;22.70;54.30;;;;;;5045027;28;20454;-68
2022/07/06 11:41:41;;;;;;;9.20;2.30;;;22.80;54.20;;;;;;5050754;28;20463;-69
2022/07/06 11:44:19;;;;;;;7.20;3.20;;;22.80;54.00;;;;;;5046231;28;20451;-70
2022/07/06 11:46:47;;;;;;;6.03;2.30;;;22.80;53.80;;;;;;5030033;28;20504;-69
2022/07/06 11:49:16;;;;;;;9.33;2.80;;;22.80;53.70;;;;;;5046020;28;20451;-69
2022/07/06 11:51:46;;;;;;;5.73;2.37;;;22.90;53.90;;;;;;5045041;28;20474;-68
2022/07/06 11:54:16;;;;;;;5.93;2.87;;;23.00;54.00;;;;;;5049847;28;20470;-75
2022/07/06 11:56:48;;;;;;;6.03;2.50;;;23.10;53.90;;;;;;5043240;28;21272;-73
2022/07/06 11:59:21;;;;;;;5.33;2.47;;;23.20;53.90;;;;;;5047497;28;20486;-70
2022/07/06 12:01:50;;;;;;;5.93;2.60;;;23.30;53.80;;;;;;5044593;28;20489;-70
2022/07/06 12:04:17;;;;;;;7.60;2.83;;;23.40;53.20;;;;;;5043332;28;20968;-69
2022/07/06 12:06:46;;;;;;;6.70;3.03;;;23.40;53.00;;;;;;5046612;28;21019;-68
2022/07/06 12:09:14;;;;;;;5.10;2.90;;;23.40;52.80;;;;;;5049128;28;20832;-70
2022/07/06 12:11:47;;;;;;;5.60;2.93;;;23.30;52.80;;;;;;5046230;28;21120;-70
2022/07/06 12:14:17;;;;;;;6.17;3.00;;;23.30;52.90;;;;;;5045309;28;20456;-73
2022/07/06 12:16:48;;;;;;;6.37;3.10;;;23.30;52.90;;;;;;5046207;28;20493;-73
2022/07/06 12:19:17;;;;;;;8.07;2.80;;;23.30;52.80;;;;;;5022148;28;20562;-70
2022/07/06 12:21:47;;;;;;;5.37;2.77;;;23.20;52.90;;;;;;5043661;28;20499;-71
2022/07/06 12:24:20;;;;;;;5.33;2.50;;;23.20;53.00;;;;;;5043979;28;20970;-73
2022/07/06 12:26:49;;;;;;;6.80;2.60;;;23.20;53.00;;;;;;5047017;28;20505;-72
2022/07/06 12:29:17;;;;;;;6.13;2.87;;;23.30;52.90;;;;;;5044927;28;20456;-70
2022/07/06 12:31:52;;;;;;;5.00;2.57;;;23.40;52.90;;;;;;5045754;28;20494;-72
2022/07/06 12:34:22;;;;;;;5.17;2.77;;;23.50;52.60;;;;;;5027521;28;20464;-72
2022/07/06 12:36:51;;;;;;;4.90;2.73;;;23.60;52.40;;;;;;5026532;28;21002;-71
2022/07/06 12:39:21;;;;;;;7.10;3.03;;;23.60;51.70;;;;;;5046466;28;20467;-72
2022/07/06 12:41:50;;;;;;;5.17;2.80;;;23.60;51.80;;;;;;5046457;28;20456;-70
2022/07/06 12:44:21;;;;;;;6.70;2.53;;;23.60;51.80;;;;;;5042092;28;21242;-71
2022/07/06 12:47:01;;;;;;;5.80;2.40;;;23.60;51.70;;;;;;5026591;28;20476;-71
2022/07/06 12:49:30;;;;;;;4.73;2.70;;;23.60;51.60;;;;;;5027916;28;20452;-73
2022/07/06 12:52:00;;;;;;;7.23;2.67;;;23.60;51.70;;;;;;5043420;28;20969;-73
2022/07/06 12:54:31;;;;;;;4.97;2.53;;;23.60;51.80;;;;;;5042437;28;20453;-73
2022/07/06 12:57:12;;;;;;;9.13;2.40;;;23.70;51.80;;;;;;5041635;28;20484;-72
2022/07/06 12:59:43;;;;;;;7.03;2.63;;;23.70;51.70;;;;;;5040166;28;20555;-72
2022/07/06 13:02:20;;;;;;;6.00;2.60;;;23.80;51.70;;;;;;5027008;28;21192;-72
2022/07/06 13:05:10;;;;;;;7.47;2.67;;;23.80;51.50;;;;;;5024485;28;20550;-72
2022/07/06 13:07:39;;;;;;;5.00;3.10;;;23.90;51.60;;;;;;5044335;28;20467;-70
2022/07/06 13:10:10;;;;;;;6.90;2.50;;;23.90;51.60;;;;;;5043807;28;20483;-72